Latest Coastal Weather Observations for Charles Point

IDD60701

Issued at 4:21 pm CST Saturday 28 February 2015 (issued every 10 minutes, with the page automatically refreshed every 10 minutes)

About coastal observations | Map of coastal stations | Coastal observations for NT | Marine services | Other Formats
Station Details ID: 014031 Name: CHARLES POINT Lat: -12.39 Lon: 130.63 Height: 14.0 m
Data from the previous 72 hours. | See also: Recent months for locations in Northern Territory
Date/Time
CST
Temp

°C
Wind Pressure Rain
since 9am
mm
Weather Cloud Vis
km
Sea
Height
m
Swell
Dir
 
Speed
knots
Gust
knots
hPa Trend Height
m
Period
s
Dir
28/04:00pm 30.5 WNW 9 15 1005.3 - 0.0 - - - - - - -
28/03:30pm 30.6 WNW 11 18 1005.4 - 0.0 - - - - - - -
28/03:00pm 30.8 WNW 10 15 1005.4 - 0.0 - - - - - - -
28/02:30pm 30.5 WNW 13 16 1005.8 - 0.0 - - - - - - -
28/02:00pm 31.2 WNW 11 15 1006.3 - 0.0 - - - - - - -
28/01:30pm 31.2 WNW 10 14 1006.7 - 0.0 - - - - - - -
28/01:00pm 30.9 WNW 12 15 1007.1 - 0.0 - - - - - - -
28/12:30pm 30.9 WNW 10 15 1007.5 - 0.0 - - - - - - -
28/12:00pm 30.6 WNW 11 15 1008.0 - 0.0 - - - - - - -
28/11:30am 30.7 WNW 11 14 1008.1 - 0.0 - - - - - - -
28/11:00am 29.7 W 7 11 1008.3 - 0.0 - - - - - - -
28/10:30am 30.0 W 6 11 1008.4 - 0.0 - - - - - - -
28/10:00am 29.5 WSW 4 9 1008.4 - 0.0 - - - - - - -
28/09:30am 29.0 W 4 7 1008.1 - 0.0 - - - - - - -
28/09:00am 28.5 SW 4 9 1007.7 - 47.0 - - - - - - -
28/08:30am 28.0 WSW 2 5 1007.0 - 47.0 - - - - - - -
28/08:00am 26.3 SSW 4 5 1006.7 - 47.0 - - - - - - -
28/07:30am 25.9 SW 4 6 1006.7 - 47.0 - - - - - - -
28/07:00am 25.6 SSW 7 14 1006.5 - 47.0 - - - - - - -
28/06:30am 25.5 SSW 6 10 1006.2 - 47.0 - - - - - - -
28/06:00am 24.5 SSW 6 10 1006.0 - 47.0 Recent precip. - - - - - -
28/05:30am 23.3 SW 5 10 1006.5 - 47.0 - - - - - - -
28/05:00am 22.9 W 9 16 1006.8 - 46.4 - - - - - - -
28/04:30am 22.4 NE 2 5 1007.2 - 38.0 - - - - - - -
28/04:07am 23.1 NNE 28 40 1006.2 - 31.0 - - - - - - -
28/04:06am 23.4 NNE 29 40 1006.2 - 30.4 - - - - - - -
28/04:00am 22.5 NNE 31 45 1005.9 - 24.0 - - - - - - -
28/03:56am 22.9 NNE 28 45 1005.9 - 19.6 - - - - - - -
28/03:54am 23.6 NNE 28 45 1005.3 - 17.2 - - - - - - -
28/03:44am 25.0 NNE 27 41 1006.0 - 9.2 - - - - - - -
28/03:41am 24.4 N 27 41 1006.1 - 7.4 - - - - - - -
28/03:34am 25.9 N 22 32 1005.7 - 4.8 - - - - - - -
28/03:30am 26.2 N 20 30 1005.8 - 4.6 - - - - - - -
28/03:28am 26.0 N 20 28 1006.1 - 4.6 - - - - - - -
28/03:00am 28.2 NW 16 21 1006.0 - 2.0 Recent precip. - - - - - -
28/02:30am 27.1 NW 15 21 1006.6 - 1.6 - - - - - - -
28/02:00am 28.8 WNW 13 16 1006.8 - 0.6 - - - - - - -
28/01:30am 28.8 WNW 13 15 1007.3 - 0.6 - - - - - - -
28/01:00am 28.6 NW 12 15 1007.5 - 0.6 - - - - - - -
28/12:30am 28.6 WNW 10 16 1007.8 - 0.6 - - - - - - -
28/12:00am 28.5 WNW 10 13 1008.0 - 0.6 - - - - - - -
 
Date/Time
CST
Temp

°C
Wind Pressure Rain
since 9am
mm
Weather Cloud Vis
km
Sea
Height
m
Swell
Dir
 
Speed
knots
Gust
knots
hPa Trend Height
m
Period
s
Dir
27/11:30pm 28.2 W 5 10 1009.0 - 0.6 - - - - - - -
27/11:00pm 28.0 W 7 13 1009.0 - 0.6 - - - - - - -
27/10:30pm 28.4 W 5 7 1009.1 - 0.2 - - - - - - -
27/10:00pm 28.7 WNW 9 11 1008.9 - 0.2 - - - - - - -
27/09:30pm 28.7 WNW 6 10 1008.6 - 0.2 - - - - - - -
27/09:00pm 28.6 WNW 9 12 1007.7 - 0.2 - - - - - - -
27/08:30pm 28.8 W 6 9 1007.2 - 0.2 - - - - - - -
27/08:00pm 28.6 WNW 7 12 1006.9 - 0.2 - - - - - - -
27/07:30pm 28.2 W 6 11 1006.8 - 0.2 - - - - - - -
27/07:00pm 28.1 W 6 10 1006.5 - 0.2 - - - - - - -
27/06:30pm 28.1 W 7 12 1005.6 - 0.2 - - - - - - -
27/06:00pm 28.2 WNW 8 12 1005.5 - 0.2 - - - - - - -
27/05:30pm 27.8 W 5 9 1005.2 - 0.2 - - - - - - -
27/05:00pm 27.9 W 4 8 1004.8 - 0.2 - - - - - - -
27/04:30pm 28.0 W 10 19 1004.6 - 0.2 - - - - - - -
27/04:00pm 28.3 NW 12 15 1004.9 - 0.2 - - - - - - -
27/03:30pm 29.4 SW 3 5 1005.3 - 0.2 - - - - - - -
27/03:00pm 29.6 W 6 11 1005.1 - 0.2 - - - - - - -
27/02:30pm 30.7 WNW 11 15 1005.4 - 0.2 - - - - - - -
27/02:00pm 31.8 W 8 15 1005.7 - 0.2 - - - - - - -
27/01:30pm 31.0 WNW 10 16 1006.2 - 0.2 - - - - - - -
27/01:00pm 31.6 WNW 10 14 1006.3 - 0.2 - - - - - - -
27/12:30pm 31.5 WNW 10 16 1007.3 - 0.2 - - - - - - -
27/12:00pm 31.3 WNW 9 13 1007.6 - 0.2 - - - - - - -
27/11:30am 31.3 WNW 8 13 1008.2 - 0.2 - - - - - - -
27/11:00am 30.8 W 6 10 1008.3 - 0.2 - - - - - - -
27/10:30am 30.5 W 6 10 1008.3 - 0.2 - - - - - - -
27/10:00am 30.2 W 5 9 1008.2 - 0.0 - - - - - - -
27/09:30am 29.9 W 4 10 1008.3 - 0.0 - - - - - - -
27/09:00am 29.4 W 4 7 1008.1 - 0.4 - - - - - - -
27/08:30am 29.2 WSW 2 5 1007.8 - 0.4 - - - - - - -
27/08:00am 28.6 WSW 2 4 1007.5 - 0.4 - - - - - - -
27/07:30am 28.3 W 3 5 1006.8 - 0.4 - - - - - - -
27/07:00am 28.0 WSW 2 4 1006.2 - 0.4 - - - - - - -
27/06:30am 27.9 WSW 3 6 1005.7 - 0.4 - - - - - - -
27/06:00am 28.0 WSW 3 7 1005.9 - 0.4 - - - - - - -
27/05:30am 27.5 W 4 7 1005.7 - 0.4 - - - - - - -
27/05:00am 27.4 SW 3 6 1005.5 - 0.4 - - - - - - -
27/04:30am 27.5 W 4 8 1005.4 - 0.4 - - - - - - -
27/04:00am 27.2 W 3 5 1005.5 - 0.4 - - - - - - -
27/03:30am 27.6 W 3 4 1005.9 - 0.0 - - - - - - -
27/03:00am 27.9 W 3 6 1006.2 - 0.0 - - - - - - -
27/02:30am 28.7 WNW 7 9 1006.6 - 0.0 - - - - - - -
27/02:00am 28.7 WNW 6 10 1007.0 - 0.0 - - - - - - -
27/01:30am 28.9 WNW 6 9 1007.6 - 0.0 - - - - - - -
27/01:00am 28.9 WNW 8 10 1007.8 - 0.0 - - - - - - -
27/12:30am 29.0 WNW 7 9 1008.3 - 0.0 - - - - - - -
27/12:00am 29.0 WNW 8 10 1008.5 - 0.0 - - - - - - -
 
Date/Time
CST
Temp

°C
Wind Pressure Rain
since 9am
mm
Weather Cloud Vis
km
Sea
Height
m
Swell
Dir
 
Speed
knots
Gust
knots
hPa Trend Height
m
Period
s
Dir
26/11:30pm 29.0 WNW 9 11 1008.4 - 0.0 - - - - - - -
26/11:00pm 29.1 WNW 9 11 1008.8 - 0.0 - - - - - - -
26/10:30pm 29.1 WNW 9 12 1008.8 - 0.0 - - - - - - -
26/10:00pm 29.1 WNW 10 13 1008.0 - 0.0 - - - - - - -
26/09:30pm 29.1 WNW 9 12 1007.7 - 0.0 - - - - - - -
26/09:00pm 29.1 WNW 11 15 1007.4 - 0.0 - - - - - - -
26/08:30pm 29.1 WNW 11 14 1006.9 - 0.0 - - - - - - -
26/08:00pm 29.2 WNW 11 15 1006.5 - 0.0 - - - - - - -
26/07:30pm 29.2 WNW 9 12 1006.3 - 0.0 - - - - - - -
26/07:00pm 29.3 WNW 10 13 1006.3 - 0.0 - - - - - - -
26/06:30pm 29.5 WNW 10 13 1006.0 - 0.0 - - - - - - -
26/06:00pm 30.1 WNW 9 12 1005.6 - 0.0 - - - - - - -
26/05:30pm 30.6 WNW 9 13 1005.5 - 0.0 - - - - - - -
26/05:00pm 30.9 WNW 8 11 1005.2 - 0.0 - - - - - - -
26/04:30pm 30.8 WNW 10 12 1005.1 - 0.0 - - - - - - -
26/04:00pm 30.6 W 7 11 1005.8 - 0.0 - - - - - - -
26/03:30pm 30.4 W 7 12 1005.5 - 0.0 - - - - - - -
26/03:00pm 30.3 WNW 8 12 1005.4 - 0.0 - - - - - - -
26/02:30pm 30.4 W 6 10 1005.7 - 0.0 - - - - - - -
26/02:00pm 30.8 WNW 8 12 1006.2 - 0.0 - - - - - - -
26/01:30pm 30.8 WNW 8 12 1006.7 - 0.0 - - - - - - -
26/01:00pm 30.9 WNW 7 13 1007.2 - 0.0 - - - - - - -
26/12:30pm 30.4 WNW 6 9 1007.7 - 0.0 - - - - - - -
26/12:00pm 30.0 W 5 9 1008.3 - 0.0 - - - - - - -
26/11:30am 30.3 W 4 9 1008.5 - 0.0 - - - - - - -
26/11:00am 30.7 WNW 8 11 1008.7 - 0.0 - - - - - - -
26/10:30am 30.5 WNW 7 9 1008.7 - 0.0 - - - - - - -
26/10:00am 30.2 WNW 7 10 1009.0 - 0.0 - - - - - - -
26/09:30am 29.6 WSW 3 6 1009.0 - 0.0 - - - - - - -
26/09:00am 29.1 WSW 3 6 1009.1 - 0.2 - - - - - - -
26/08:30am 27.8 SW 1 2 1008.7 - 0.2 - - - - - - -
26/08:00am 26.7 SSW 1 2 1008.3 - 0.2 - - - - - - -
26/07:30am 25.5 SSW 2 3 1007.6 - 0.2 - - - - - - -
26/07:00am 24.8 SSW 3 3 1007.6 - 0.2 - - - - - - -
26/06:30am 24.9 SW 2 2 1007.7 - 0.2 - - - - - - -
26/06:00am 25.0 WSW 1 2 1007.4 - 0.2 - - - - - - -
26/05:30am 25.3 W 2 3 1007.3 - 0.2 - - - - - - -
26/05:00am 25.0 SSW 3 4 1007.0 - 0.2 - - - - - - -
26/04:30am 25.1 S 3 4 1007.0 - 0.2 - - - - - - -
26/04:00am 25.2 S 3 4 1007.1 - 0.2 - - - - - - -
26/03:30am 25.4 SSE 3 5 1007.4 - 0.2 - - - - - - -
26/03:00am 25.5 S 3 5 1007.2 - 0.2 - - - - - - -
26/02:30am 25.7 SSE 3 6 1007.4 - 0.2 - - - - - - -
26/02:00am 26.1 SSE 3 4 1007.4 - 0.2 - - - - - - -
26/01:30am 26.3 SSW 2 3 1007.5 - 0.2 - - - - - - -
26/01:00am 27.1 SW 2 3 1007.8 - 0.2 - - - - - - -
26/12:30am 27.2 SW 2 3 1008.1 - 0.2 - - - - - - -
26/12:00am 27.2 WSW 2 3 1008.4 - 0.2 - - - - - - -
 
Date/Time
CST
Temp

°C
Wind Pressure Rain
since 9am
mm
Weather Cloud Vis
km
Sea
Height
m
Swell
Dir
 
Speed
knots
Gust
knots
hPa Trend Height
m
Period
s
Dir
25/11:30pm 27.3 SW 2 4 1008.9 - 0.2 - - - - - - -
25/11:00pm 27.3 WSW 2 4 1008.8 - 0.2 - - - - - - -
25/10:30pm 27.3 SW 2 3 1008.7 - 0.2 - - - - - - -
25/10:00pm 27.5 SW 3 6 1008.8 - 0.2 - - - - - - -
25/09:30pm 27.2 SW 2 6 1008.9 - 0.2 - - - - - - -
25/09:00pm 27.0 WSW 2 4 1008.7 - 0.2 - - - - - - -
25/08:30pm 26.9 W 2 2 1008.6 - 0.2 - - - - - - -
25/08:00pm 27.3 WSW 1 2 1008.6 - 0.2 - - - - - - -
25/07:30pm 27.6 SSW 2 4 1008.2 - 0.2 - - - - - - -
25/07:00pm 27.9 SW 4 7 1008.1 - 0.2 - - - - - - -
25/06:30pm 28.2 SW 4 9 1007.8 - 0.2 - - - - - - -
25/06:00pm 28.4 WSW 4 8 1006.9 - 0.2 - - - - - - -
25/05:30pm 28.5 SW 4 6 1006.9 - 0.2 - - - - - - -
25/05:00pm 28.6 WSW 5 10 1006.6 - 0.2 - - - - - - -
25/04:30pm 29.1 WSW 5 10 1006.6 - 0.2 - - - - - - -

Other Formats:

Comma delimited format used in spreadsheet applications
http://www.bom.gov.au/fwo/IDD60701/IDD60701.99510.axf

JavaScript Object Notation format (JSON) in row-major order
http://www.bom.gov.au/fwo/IDD60701/IDD60701.99510.json